Time;durP1;ratioP1;P1;durP2;ratioP2;P2;SDS_P1;SDS_P2;PMS_P1;PMS_P2;Temp;Humidity;BMP_temperature;BMP_pressure;BME280_temperature;BME280_humidity;BME280_pressure;Samples;Min_cycle;Max_cycle;Signal;HPM_P1;HPM_P2
2022/12/21 00:01:56;;;;;;;1.92;0.40;;;23.10;99.90;;;;;;5088973;28;20195;-84
2022/12/21 00:04:27;;;;;;;1.90;0.50;;;23.00;99.50;;;;;;5087226;28;20286;-83
2022/12/21 00:06:58;;;;;;;1.75;0.63;;;23.10;99.40;;;;;;5089651;28;20195;-83
2022/12/21 00:09:29;;;;;;;3.03;0.60;;;23.00;99.00;;;;;;5092269;28;20248;-85
2022/12/21 00:12:02;;;;;;;1.05;0.35;;;22.90;98.00;;;;;;5091360;28;20195;-84
2022/12/21 00:14:33;;;;;;;2.83;0.60;;;22.80;98.70;;;;;;5090706;28;20289;-86
2022/12/21 00:17:04;;;;;;;1.63;0.65;;;22.90;99.90;;;;;;5088681;28;20231;-84
2022/12/21 00:19:35;;;;;;;3.15;0.60;;;22.80;99.00;;;;;;5096193;28;20286;-84
2022/12/21 00:22:07;;;;;;;1.35;0.50;;;22.80;98.40;;;;;;5091446;28;20689;-86
2022/12/21 00:24:39;;;;;;;2.58;0.52;;;22.90;98.00;;;;;;5087458;28;20290;-84
2022/12/21 00:27:12;;;;;;;1.15;0.40;;;22.90;97.80;;;;;;5085615;28;20252;-83
2022/12/21 00:29:43;;;;;;;3.63;0.60;;;22.90;96.50;;;;;;5089580;28;20242;-82
2022/12/21 00:32:14;;;;;;;1.00;0.50;;;23.00;96.80;;;;;;5083891;28;20568;-82
2022/12/21 00:34:45;;;;;;;1.55;0.55;;;23.30;97.30;;;;;;5088341;28;20195;-83
2022/12/21 00:37:15;;;;;;;0.57;0.43;;;23.30;96.70;;;;;;5089285;28;20325;-82
2022/12/21 00:39:47;;;;;;;0.47;0.45;;;23.20;95.60;;;;;;5086570;28;20274;-82
2022/12/21 00:42:19;;;;;;;2.88;0.52;;;23.10;97.00;;;;;;5088794;28;20243;-81
2022/12/21 00:44:50;;;;;;;1.65;0.80;;;23.10;96.60;;;;;;5095144;28;20622;-83
2022/12/21 00:47:21;;;;;;;2.85;0.50;;;23.10;96.10;;;;;;5087507;28;20290;-82
2022/12/21 00:49:52;;;;;;;1.40;0.45;;;23.00;95.90;;;;;;5102045;28;20270;-77
2022/12/21 00:52:22;;;;;;;1.98;0.57;;;22.90;94.90;;;;;;5088499;28;20624;-82
2022/12/21 00:54:53;;;;;;;3.00;0.57;;;22.80;95.90;;;;;;5088589;28;20200;-83
2022/12/21 00:57:26;;;;;;;2.55;0.50;;;22.90;96.50;;;;;;5089553;28;20255;-83
2022/12/21 00:59:57;;;;;;;2.15;0.55;;;22.90;97.50;;;;;;5090194;28;20260;-83
2022/12/21 01:02:28;;;;;;;1.88;0.52;;;22.80;98.20;;;;;;5086827;28;20293;-83
2022/12/21 01:05:00;;;;;;;2.40;0.52;;;22.80;98.00;;;;;;5089970;28;20445;-84
2022/12/21 01:07:31;;;;;;;2.30;0.55;;;23.00;98.30;;;;;;5078201;28;20209;-83
2022/12/21 01:10:02;;;;;;;2.20;0.60;;;23.20;97.20;;;;;;5089486;28;20698;-82
2022/12/21 01:12:34;;;;;;;1.20;0.50;;;23.30;96.90;;;;;;5088788;28;20570;-83
2022/12/21 01:15:07;;;;;;;0.60;0.40;;;23.40;96.30;;;;;;5088320;28;20278;-82
2022/12/21 01:17:39;;;;;;;1.38;0.40;;;23.40;95.80;;;;;;5083834;28;20227;-82
2022/12/21 01:20:11;;;;;;;3.05;0.50;;;23.50;95.60;;;;;;5088317;28;20195;-83
2022/12/21 01:22:42;;;;;;;2.38;0.50;;;23.60;94.60;;;;;;5090117;28;20283;-82
2022/12/21 01:25:12;;;;;;;2.53;0.40;;;23.80;94.70;;;;;;5089749;28;20262;-83
2022/12/21 01:27:45;;;;;;;2.22;0.50;;;23.90;94.00;;;;;;5090338;28;20238;-83
2022/12/21 01:30:16;;;;;;;2.00;0.50;;;23.90;96.20;;;;;;5089153;28;20201;-82
2022/12/21 01:32:47;;;;;;;2.85;0.55;;;23.70;97.10;;;;;;5087304;28;20195;-83
2022/12/21 01:35:18;;;;;;;2.22;0.70;;;23.40;97.20;;;;;;5087477;28;20253;-83
2022/12/21 01:37:49;;;;;;;1.85;0.57;;;23.50;98.20;;;;;;5087798;28;20262;-83
2022/12/21 01:40:20;;;;;;;1.83;0.40;;;23.30;98.30;;;;;;5082226;28;20196;-83
2022/12/21 01:42:53;;;;;;;2.70;0.60;;;23.40;99.20;;;;;;5084496;28;20218;-84
2022/12/21 01:45:28;;;;;;;2.55;1.00;;;23.50;98.60;;;;;;5088123;28;21167;-83
2022/12/21 01:48:01;;;;;;;3.78;1.10;;;23.60;98.90;;;;;;5088492;28;20289;-83
2022/12/21 01:50:46;;;;;;;1.65;0.90;;;23.70;99.90;;;;;;5089780;28;20294;-83
2022/12/21 01:53:19;;;;;;;3.10;0.50;;;23.80;99.90;;;;;;5111853;28;20226;-83
2022/12/21 01:55:53;;;;;;;3.75;0.90;;;23.80;99.90;;;;;;5086498;28;20231;-83
2022/12/21 01:58:28;;;;;;;2.10;0.70;;;23.90;99.50;;;;;;5071388;28;20184;-83
2022/12/21 02:01:01;;;;;;;2.65;0.60;;;23.90;99.40;;;;;;5086583;28;20196;-82
2022/12/21 02:03:36;;;;;;;2.83;0.60;;;24.10;99.20;;;;;;5086545;28;20274;-84
2022/12/21 02:06:11;;;;;;;1.35;0.50;;;24.20;97.90;;;;;;5091629;28;20187;-82
2022/12/21 02:08:43;;;;;;;3.15;0.77;;;24.20;97.50;;;;;;5094346;28;20634;-84
2022/12/21 02:11:14;;;;;;;2.55;0.70;;;24.30;97.30;;;;;;5091689;28;20662;-83
2022/12/21 02:13:47;;;;;;;1.90;0.52;;;24.50;97.80;;;;;;5094959;28;20191;-82
2022/12/21 02:16:30;;;;;;;1.75;0.75;;;24.70;95.70;;;;;;5088556;28;20231;-83
2022/12/21 02:19:28;;;;;;;2.10;0.88;;;24.80;95.90;;;;;;5091756;28;20269;-84
2022/12/21 02:22:02;;;;;;;1.33;0.60;;;24.80;95.60;;;;;;5095852;28;20196;-84
2022/12/21 02:24:50;;;;;;;1.13;0.80;;;24.90;96.20;;;;;;5092679;28;20638;-83
2022/12/21 02:27:58;;;;;;;1.77;0.77;;;24.90;94.90;;;;;;5091767;28;20196;-84
2022/12/21 02:30:51;;;;;;;2.53;0.60;;;25.00;94.80;;;;;;5095395;28;20226;-83
2022/12/21 02:33:31;;;;;;;2.17;0.70;;;24.90;94.60;;;;;;5092712;28;20278;-83
2022/12/21 02:36:15;;;;;;;3.38;1.25;;;24.90;94.20;;;;;;5093865;28;20199;-83
2022/12/21 02:38:54;;;;;;;1.33;0.52;;;25.00;94.60;;;;;;5091551;28;20310;-82
2022/12/21 02:41:36;;;;;;;1.30;0.63;;;25.20;93.90;;;;;;5088316;28;20290;-84
2022/12/21 02:44:16;;;;;;;1.67;0.68;;;25.30;93.90;;;;;;5091320;28;20638;-84
2022/12/21 02:47:00;;;;;;;1.80;0.80;;;25.40;93.30;;;;;;5090104;28;20289;-84
2022/12/21 02:49:39;;;;;;;1.38;0.40;;;25.50;92.70;;;;;;5088207;28;20202;-84
2022/12/21 02:52:16;;;;;;;1.73;0.52;;;25.60;91.00;;;;;;5093760;28;20264;-84
2022/12/21 02:54:50;;;;;;;1.83;0.55;;;25.50;90.00;;;;;;5113546;28;20183;-83
2022/12/21 02:57:20;;;;;;;0.98;0.40;;;25.50;90.10;;;;;;5094428;28;20764;-83
2022/12/21 02:59:52;;;;;;;3.47;0.50;;;25.60;90.10;;;;;;5092814;28;20528;-84
2022/12/21 03:02:41;;;;;;;1.30;0.50;;;25.60;92.10;;;;;;5088267;28;20636;-84
2022/12/21 03:05:36;;;;;;;1.35;0.38;;;25.70;91.50;;;;;;5092415;28;20633;-84
2022/12/21 03:08:19;;;;;;;2.05;0.20;;;25.70;90.50;;;;;;5089721;28;20278;-83
2022/12/21 03:11:00;;;;;;;2.22;0.30;;;25.50;91.30;;;;;;5101916;28;20207;-84
2022/12/21 03:13:45;;;;;;;1.60;0.25;;;25.40;91.10;;;;;;5092233;28;20533;-84
2022/12/21 03:16:23;;;;;;;1.77;0.40;;;25.30;92.30;;;;;;5084421;28;20665;-83
2022/12/21 03:19:04;;;;;;;1.92;0.32;;;25.30;92.80;;;;;;5089549;28;20282;-84
2022/12/21 03:21:43;;;;;;;3.05;0.40;;;25.40;92.10;;;;;;5089011;28;20286;-84
2022/12/21 03:24:16;;;;;;;1.15;0.40;;;25.50;91.80;;;;;;5092859;28;20676;-84
2022/12/21 03:26:52;;;;;;;0.85;0.40;;;25.60;91.60;;;;;;5092021;28;20290;-85
2022/12/21 03:29:29;;;;;;;1.23;0.40;;;25.50;91.30;;;;;;5088213;28;20198;-84
2022/12/21 03:32:06;;;;;;;2.78;0.50;;;25.50;91.80;;;;;;5091088;28;20289;-84
2022/12/21 03:34:40;;;;;;;1.48;0.50;;;25.40;92.60;;;;;;5091619;28;20276;-84
2022/12/21 03:37:20;;;;;;;3.15;0.43;;;25.60;91.80;;;;;;5091178;28;20585;-85
2022/12/21 03:39:56;;;;;;;1.17;0.30;;;25.60;91.50;;;;;;5092173;28;20205;-84
2022/12/21 03:42:30;;;;;;;2.78;0.40;;;25.70;91.80;;;;;;5090754;28;20191;-84
2022/12/21 03:45:04;;;;;;;3.03;0.50;;;25.50;93.10;;;;;;5093517;28;20230;-84
2022/12/21 03:47:41;;;;;;;1.02;0.35;;;25.40;93.70;;;;;;5088929;28;20329;-83
2022/12/21 03:50:16;;;;;;;2.17;0.40;;;25.10;92.00;;;;;;5089511;28;20199;-86
2022/12/21 03:52:53;;;;;;;1.00;0.30;;;24.90;92.40;;;;;;5093744;28;20285;-85
2022/12/21 03:55:27;;;;;;;2.60;0.40;;;25.00;92.60;;;;;;5100294;28;20202;-85
2022/12/21 03:57:59;;;;;;;2.40;0.52;;;24.90;93.30;;;;;;5108681;28;20229;-85
2022/12/21 04:00:33;;;;;;;2.70;0.43;;;25.00;94.50;;;;;;5099621;28;20198;-84
2022/12/21 04:03:08;;;;;;;1.67;0.30;;;25.30;94.70;;;;;;5088600;28;20195;-84
2022/12/21 04:05:46;;;;;;;1.73;0.40;;;25.50;92.30;;;;;;5086760;28;20543;-85
2022/12/21 04:08:19;;;;;;;1.17;0.50;;;25.60;92.00;;;;;;5077804;28;20196;-84
2022/12/21 04:10:50;;;;;;;1.90;0.40;;;25.80;92.70;;;;;;5088002;28;20657;-84
2022/12/21 04:13:20;;;;;;;3.63;0.60;;;26.00;91.40;;;;;;5091235;28;20578;-85
2022/12/21 04:16:06;;;;;;;1.77;0.65;;;26.00;92.70;;;;;;5087522;28;20251;-85
2022/12/21 04:21:24;;;;;;;0.95;0.40;;;25.60;92.90;;;;;;5085740;28;20199;-85
2022/12/21 04:29:29;;;;;;;1.73;0.55;;;25.60;94.40;;;;;;5081144;28;20277;-85
2022/12/21 04:32:00;;;;;;;1.98;0.47;;;25.80;94.40;;;;;;5085767;28;20191;-83
2022/12/21 04:34:31;;;;;;;1.27;0.40;;;25.90;93.90;;;;;;5090971;28;20201;-83
2022/12/21 04:39:50;;;;;;;1.65;0.55;;;26.10;93.70;;;;;;5089631;28;20240;-81
2022/12/21 04:42:21;;;;;;;2.53;0.50;;;26.10;93.10;;;;;;5070800;28;20250;-83
2022/12/21 04:44:52;;;;;;;5.15;0.50;;;25.90;93.20;;;;;;5075460;28;20294;-83
2022/12/21 04:47:23;;;;;;;1.65;0.50;;;25.60;94.60;;;;;;5088320;28;20206;-83
2022/12/21 04:49:54;;;;;;;0.82;0.25;;;25.90;94.00;;;;;;5088360;28;20286;-82
2022/12/21 04:52:24;;;;;;;1.63;0.40;;;25.80;93.60;;;;;;5086919;28;20203;-84
2022/12/21 04:54:57;;;;;;;1.58;0.43;;;25.80;94.80;;;;;;5085971;28;20274;-83
2022/12/21 04:57:28;;;;;;;2.38;0.40;;;25.90;93.30;;;;;;5094634;28;20219;-85
2022/12/21 04:59:59;;;;;;;0.32;0.20;;;26.00;93.60;;;;;;5096451;28;20231;-83
2022/12/21 05:02:30;;;;;;;1.05;0.32;;;26.10;92.80;;;;;;5101339;28;20191;-84
2022/12/21 05:05:01;;;;;;;1.15;0.32;;;26.10;93.10;;;;;;5087828;28;20246;-84
2022/12/21 05:07:32;;;;;;;0.98;0.38;;;26.30;92.90;;;;;;5089973;28;20205;-84
2022/12/21 05:10:05;;;;;;;1.50;0.30;;;26.30;91.80;;;;;;5088588;28;20191;-83
2022/12/21 05:12:39;;;;;;;1.08;0.50;;;26.20;91.60;;;;;;5090618;28;20191;-83
2022/12/21 05:15:13;;;;;;;1.75;0.52;;;26.20;92.20;;;;;;5104999;28;20663;-86
2022/12/21 05:17:43;;;;;;;1.58;0.50;;;26.20;91.50;;;;;;5091326;28;20235;-84
2022/12/21 05:20:14;;;;;;;0.90;0.30;;;26.30;91.00;;;;;;5093337;28;20199;-83
2022/12/21 05:22:49;;;;;;;1.00;0.40;;;26.30;91.40;;;;;;5100329;28;20199;-83
2022/12/21 05:25:24;;;;;;;1.27;0.30;;;26.30;90.30;;;;;;5077952;28;20198;-83
2022/12/21 05:27:55;;;;;;;2.88;0.45;;;26.50;90.60;;;;;;5095144;28;20194;-83
2022/12/21 05:30:25;;;;;;;1.63;0.40;;;26.50;90.30;;;;;;5093818;28;20694;-82
2022/12/21 05:32:56;;;;;;;2.58;0.40;;;26.40;90.00;;;;;;5088439;28;20206;-84
2022/12/21 05:35:27;;;;;;;1.52;0.20;;;26.60;89.20;;;;;;5083554;28;20209;-85
2022/12/21 05:37:58;;;;;;;3.72;0.60;;;26.90;87.50;;;;;;5093148;28;20227;-85
2022/12/21 05:40:30;;;;;;;1.38;0.30;;;26.90;87.00;;;;;;5089251;28;20202;-86
2022/12/21 05:43:01;;;;;;;0.45;0.25;;;27.20;84.60;;;;;;5091856;28;20285;-87
2022/12/21 05:45:33;;;;;;;1.83;0.30;;;27.20;86.30;;;;;;5094312;28;20290;-87
2022/12/21 05:48:04;;;;;;;2.38;0.50;;;27.30;86.60;;;;;;5094620;28;20191;-86
2022/12/21 05:50:35;;;;;;;2.67;0.47;;;27.10;85.30;;;;;;5092298;28;20206;-86
2022/12/21 05:53:06;;;;;;;2.28;0.50;;;27.00;86.00;;;;;;5095979;28;20252;-86
2022/12/21 05:55:40;;;;;;;1.27;0.47;;;27.10;85.80;;;;;;5097419;28;20199;-86
2022/12/21 05:58:10;;;;;;;2.50;0.40;;;26.90;85.90;;;;;;5094274;28;20275;-87
2022/12/21 06:00:41;;;;;;;1.92;0.40;;;27.20;84.70;;;;;;5082065;28;20283;-85
2022/12/21 06:03:12;;;;;;;2.22;0.40;;;27.40;84.40;;;;;;5094152;28;20203;-85
2022/12/21 06:05:43;;;;;;;1.02;0.40;;;27.60;82.10;;;;;;5105069;28;20183;-85
2022/12/21 06:08:14;;;;;;;0.47;0.30;;;27.30;81.10;;;;;;5106766;28;20192;-85
2022/12/21 06:10:47;;;;;;;1.17;0.28;;;27.20;82.70;;;;;;5092455;28;20286;-86
2022/12/21 06:13:18;;;;;;;2.60;0.47;;;27.00;82.80;;;;;;5083275;28;20200;-85
2022/12/21 06:15:49;;;;;;;1.00;0.20;;;26.90;84.30;;;;;;5097396;28;20224;-86
2022/12/21 06:18:20;;;;;;;1.25;0.40;;;27.00;84.00;;;;;;5095402;28;20745;-86
2022/12/21 06:20:56;;;;;;;1.05;0.40;;;27.30;84.70;;;;;;5099823;28;20251;-85
2022/12/21 06:23:27;;;;;;;2.38;0.32;;;27.40;83.50;;;;;;5116805;28;20195;-87
2022/12/21 06:26:04;;;;;;;2.42;0.43;;;27.50;83.10;;;;;;5093926;28;20192;-86
2022/12/21 06:28:36;;;;;;;1.52;0.40;;;27.30;83.40;;;;;;5073206;28;20210;-84
2022/12/21 06:31:07;;;;;;;1.15;0.40;;;27.40;83.80;;;;;;5082547;28;20275;-86
2022/12/21 06:33:39;;;;;;;1.98;0.60;;;27.60;83.20;;;;;;5091808;28;20196;-84
2022/12/21 06:36:11;;;;;;;4.55;0.57;;;27.60;81.80;;;;;;5092418;28;20227;-86
2022/12/21 06:38:42;;;;;;;2.85;0.32;;;28.10;81.30;;;;;;5074418;28;20325;-87
2022/12/21 06:41:17;;;;;;;0.82;0.40;;;28.20;82.00;;;;;;5100792;28;20273;-86
2022/12/21 06:43:50;;;;;;;1.30;0.45;;;28.60;80.00;;;;;;5105798;28;20676;-86
2022/12/21 06:46:24;;;;;;;1.17;0.50;;;28.90;77.70;;;;;;5090110;28;20216;-86
2022/12/21 06:48:55;;;;;;;1.65;0.40;;;29.10;76.60;;;;;;5088483;28;20249;-86
2022/12/21 06:51:27;;;;;;;1.27;0.30;;;29.00;76.20;;;;;;5092018;28;20274;-87
2022/12/21 06:53:58;;;;;;;2.45;0.35;;;28.90;74.80;;;;;;5090151;28;20196;-84
2022/12/21 06:56:33;;;;;;;4.82;0.50;;;28.50;74.90;;;;;;5094647;28;20225;-86
2022/12/21 06:59:04;;;;;;;3.05;0.50;;;28.20;75.80;;;;;;5095047;28;20226;-86
2022/12/21 07:01:37;;;;;;;2.55;0.30;;;27.70;76.70;;;;;;5092398;28;20196;-85
2022/12/21 07:04:08;;;;;;;3.33;0.30;;;27.50;79.20;;;;;;5083088;28;20226;-86
2022/12/21 07:06:39;;;;;;;2.58;0.70;;;27.60;80.70;;;;;;5089307;28;20199;-86
2022/12/21 07:09:09;;;;;;;1.75;0.40;;;27.30;81.30;;;;;;5090974;28;20282;-86
2022/12/21 07:11:42;;;;;;;1.88;0.50;;;27.40;80.00;;;;;;5101118;28;20259;-86
2022/12/21 07:14:13;;;;;;;1.58;0.40;;;27.30;80.20;;;;;;5107582;28;20206;-85
2022/12/21 07:16:44;;;;;;;2.95;0.50;;;26.70;82.80;;;;;;5085143;28;20238;-86
2022/12/21 07:19:15;;;;;;;2.58;0.40;;;26.50;84.30;;;;;;5092104;28;20225;-86
2022/12/21 07:21:46;;;;;;;1.92;0.55;;;26.40;85.50;;;;;;5090279;28;20658;-87
2022/12/21 07:24:17;;;;;;;3.65;0.60;;;26.30;87.10;;;;;;5089998;28;20193;-86
2022/12/21 07:26:50;;;;;;;2.28;0.60;;;26.10;87.00;;;;;;5090322;28;20211;-85
2022/12/21 07:29:20;;;;;;;2.42;0.40;;;25.90;88.40;;;;;;5090106;28;20199;-86
2022/12/21 07:31:52;;;;;;;1.23;0.30;;;26.00;88.20;;;;;;5089554;28;20225;-86
2022/12/21 07:34:22;;;;;;;2.25;0.40;;;25.80;88.90;;;;;;5090203;28;20195;-86
2022/12/21 07:36:53;;;;;;;3.20;0.40;;;25.50;89.70;;;;;;5086683;28;21955;-88
2022/12/21 07:39:24;;;;;;;2.75;0.40;;;25.10;90.90;;;;;;5091875;28;20584;-87
2022/12/21 07:41:57;;;;;;;2.50;0.40;;;24.90;91.80;;;;;;5093695;28;20222;-86
2022/12/21 07:44:28;;;;;;;3.13;0.50;;;24.40;92.50;;;;;;5104834;28;20190;-85
2022/12/21 07:46:59;;;;;;;1.08;0.50;;;24.10;93.50;;;;;;5099638;28;20290;-86
2022/12/21 07:49:30;;;;;;;3.30;0.50;;;24.00;93.80;;;;;;5105760;28;20218;-85
2022/12/21 07:52:01;;;;;;;1.02;0.40;;;23.90;93.80;;;;;;5098506;28;20725;-85
2022/12/21 07:54:32;;;;;;;0.70;0.20;;;23.70;94.30;;;;;;5085136;28;20195;-85
2022/12/21 07:57:05;;;;;;;1.65;0.52;;;23.60;95.10;;;;;;5092161;28;20195;-84
2022/12/21 07:59:36;;;;;;;2.88;0.47;;;23.70;95.50;;;;;;5090943;28;20223;-85
2022/12/21 08:02:07;;;;;;;1.38;0.50;;;23.90;95.60;;;;;;5082081;28;20251;-85
2022/12/21 08:04:38;;;;;;;3.10;0.43;;;23.90;96.20;;;;;;5091398;28;20680;-85
2022/12/21 08:07:08;;;;;;;1.98;0.60;;;23.70;96.90;;;;;;5092342;28;20249;-86
2022/12/21 08:09:40;;;;;;;0.40;0.30;;;23.40;98.40;;;;;;5092976;28;20199;-89
2022/12/21 08:12:13;;;;;;;2.83;0.40;;;23.30;99.90;;;;;;5091146;28;20195;-85
2022/12/21 08:14:44;;;;;;;1.15;0.40;;;23.30;99.60;;;;;;5089530;28;20290;-86
2022/12/21 08:17:18;;;;;;;1.25;0.30;;;23.10;99.90;;;;;;5094330;28;20254;-87
2022/12/21 08:19:49;;;;;;;1.20;0.32;;;23.00;99.90;;;;;;5107892;28;20258;-86
2022/12/21 08:22:20;;;;;;;0.68;0.35;;;22.80;99.90;;;;;;5084985;28;20222;-86
2022/12/21 08:24:51;;;;;;;3.95;0.90;;;22.70;99.90;;;;;;5090394;28;20201;-86
2022/12/21 08:27:23;;;;;;;2.67;0.63;;;22.60;99.90;;;;;;5088635;28;20201;-86
2022/12/21 08:29:54;;;;;;;1.60;0.50;;;22.40;99.90;;;;;;5086847;28;20257;-85
2022/12/21 08:32:25;;;;;;;2.05;0.50;;;22.30;99.90;;;;;;5082210;28;20202;-85
2022/12/21 08:34:56;;;;;;;2.58;0.80;;;22.30;99.90;;;;;;5088159;28;20303;-85
2022/12/21 08:37:27;;;;;;;1.70;1.15;;;22.20;99.90;;;;;;5089562;28;20646;-84
2022/12/21 08:39:57;;;;;;;3.75;0.90;;;22.30;99.90;;;;;;5081212;28;20221;-84
2022/12/21 08:42:32;;;;;;;2.30;0.57;;;22.10;99.90;;;;;;5088551;28;20187;-83
2022/12/21 08:45:04;;;;;;;1.23;0.50;;;22.10;99.90;;;;;;5089135;28;20282;-85
2022/12/21 08:47:35;;;;;;;1.73;0.75;;;22.00;99.90;;;;;;5086494;28;20287;-84
2022/12/21 08:50:06;;;;;;;1.58;0.70;;;22.00;99.90;;;;;;5090223;28;20225;-84
2022/12/21 08:52:37;;;;;;;1.35;0.40;;;22.00;99.90;;;;;;5085351;28;20278;-82
2022/12/21 08:55:08;;;;;;;1.73;0.50;;;21.80;99.90;;;;;;5086407;28;20195;-83
2022/12/21 08:57:40;;;;;;;1.48;0.45;;;21.80;99.90;;;;;;5090373;28;20228;-81
2022/12/21 09:00:12;;;;;;;1.92;0.45;;;21.70;99.90;;;;;;5084623;28;20216;-85
2022/12/21 09:02:43;;;;;;;2.47;0.50;;;21.60;99.90;;;;;;5086950;28;20210;-81
2022/12/21 09:05:14;;;;;;;3.38;0.52;;;21.60;99.90;;;;;;5086634;28;20374;-85
2022/12/21 09:07:45;;;;;;;1.23;0.40;;;21.60;99.90;;;;;;5088875;28;20225;-83
2022/12/21 09:10:16;;;;;;;1.15;0.35;;;21.60;99.90;;;;;;5090844;28;20195;-83
2022/12/21 09:12:48;;;;;;;2.95;0.50;;;21.50;99.90;;;;;;5085079;28;20206;-82
2022/12/21 09:15:20;;;;;;;1.88;0.60;;;21.50;99.90;;;;;;5090990;28;20195;-83
2022/12/21 09:17:51;;;;;;;1.80;0.63;;;21.30;99.90;;;;;;5092516;28;20227;-83
2022/12/21 09:20:22;;;;;;;2.35;0.50;;;21.30;99.90;;;;;;5093904;28;20203;-82
2022/12/21 09:22:53;;;;;;;2.42;0.60;;;21.20;99.90;;;;;;5098228;28;20200;-82
2022/12/21 09:25:25;;;;;;;3.35;0.50;;;21.20;99.90;;;;;;5108433;28;20210;-82
2022/12/21 09:28:01;;;;;;;3.38;0.60;;;21.20;99.90;;;;;;5091385;28;20566;-83
2022/12/21 09:30:32;;;;;;;1.67;0.63;;;21.30;99.90;;;;;;5096534;28;20199;-83
2022/12/21 09:33:03;;;;;;;1.63;0.50;;;21.30;99.90;;;;;;5085855;28;20271;-83
2022/12/21 09:35:37;;;;;;;2.70;0.60;;;21.30;99.90;;;;;;5082252;28;20281;-83
2022/12/21 09:38:11;;;;;;;5.65;0.80;;;21.20;99.90;;;;;;5091388;28;20258;-83
2022/12/21 09:40:49;;;;;;;2.35;0.68;;;21.20;99.90;;;;;;5109040;28;20186;-83
2022/12/21 09:43:51;;;;;;;2.85;0.50;;;21.10;99.90;;;;;;5103681;28;20199;-83
2022/12/21 09:46:22;;;;;;;1.42;0.40;;;21.10;99.90;;;;;;5096059;28;20198;-82
2022/12/21 09:48:57;;;;;;;2.33;0.50;;;21.10;99.90;;;;;;5097801;28;20199;-82
2022/12/21 09:51:30;;;;;;;2.58;0.47;;;21.10;99.90;;;;;;5094145;28;20226;-82
2022/12/21 09:54:17;;;;;;;3.13;0.60;;;21.10;99.90;;;;;;5090639;28;20195;-84
2022/12/21 09:56:52;;;;;;;1.70;0.70;;;21.00;99.90;;;;;;5096977;28;20248;-83
2022/12/21 09:59:26;;;;;;;2.33;0.40;;;21.00;99.90;;;;;;5089038;28;20656;-83
2022/12/21 10:02:09;;;;;;;0.60;0.30;;;21.00;99.90;;;;;;5093239;28;20195;-85
2022/12/21 10:04:52;;;;;;;1.30;0.40;;;21.00;99.90;;;;;;5099851;28;20195;-84
2022/12/21 10:07:48;;;;;;;2.38;0.57;;;21.00;99.90;;;;;;5095832;28;20205;-83
2022/12/21 10:10:26;;;;;;;1.67;0.65;;;20.90;99.90;;;;;;5092547;28;20263;-83
2022/12/21 10:13:03;;;;;;;3.00;0.60;;;21.00;99.90;;;;;;5105178;28;20234;-84
2022/12/21 10:15:59;;;;;;;0.93;0.60;;;20.90;99.90;;;;;;5101669;28;20199;-83
2022/12/21 10:18:40;;;;;;;1.33;0.70;;;20.90;99.90;;;;;;5101084;28;20191;-83
2022/12/21 10:21:18;;;;;;;1.70;0.80;;;21.00;99.90;;;;;;5094497;28;20202;-83
2022/12/21 10:23:55;;;;;;;1.23;0.55;;;21.00;99.90;;;;;;5106605;28;20202;-82
2022/12/21 10:26:28;;;;;;;0.93;0.52;;;21.00;99.90;;;;;;5097922;28;20199;-83
2022/12/21 10:29:03;;;;;;;1.80;0.50;;;20.90;99.90;;;;;;5100863;28;20520;-83
2022/12/21 10:31:41;;;;;;;1.55;0.50;;;20.90;99.90;;;;;;5097228;28;20233;-83
2022/12/21 10:34:35;;;;;;;1.90;0.60;;;20.80;99.90;;;;;;5081440;28;20218;-83
2022/12/21 10:37:15;;;;;;;2.65;0.68;;;20.80;99.90;;;;;;5100469;28;20199;-84
2022/12/21 10:42:40;;;;;;;2.75;0.60;;;20.70;99.90;;;;;;5084114;28;20225;-82
2022/12/21 10:45:17;;;;;;;2.58;0.80;;;20.70;99.90;;;;;;5060987;28;20199;-83
2022/12/21 10:47:50;;;;;;;1.15;0.60;;;20.70;99.90;;;;;;5088730;28;20263;-83
2022/12/21 10:50:25;;;;;;;1.10;0.47;;;20.70;99.90;;;;;;5071175;28;20218;-84
2022/12/21 10:52:57;;;;;;;2.00;0.57;;;20.70;99.90;;;;;;5071432;28;20198;-83
2022/12/21 10:55:34;;;;;;;1.70;0.50;;;20.70;99.90;;;;;;5071555;28;20196;-83
2022/12/21 10:58:18;;;;;;;2.72;0.50;;;20.70;99.90;;;;;;5089392;28;20203;-84
2022/12/21 11:01:06;;;;;;;1.52;0.40;;;20.70;99.90;;;;;;5090872;28;20195;-82
2022/12/21 11:03:42;;;;;;;2.03;0.65;;;20.60;99.90;;;;;;5086866;28;20274;-83
2022/12/21 11:06:17;;;;;;;2.67;0.60;;;20.60;99.90;;;;;;5071813;28;20568;-82
2022/12/21 11:08:49;;;;;;;3.15;0.45;;;20.70;99.90;;;;;;5070965;28;20206;-83
2022/12/21 11:11:35;;;;;;;2.38;0.50;;;20.60;99.90;;;;;;5075581;28;20203;-83
2022/12/21 11:14:19;;;;;;;2.20;0.77;;;20.60;99.90;;;;;;5071342;28;20211;-83
2022/12/21 11:16:52;;;;;;;1.83;0.70;;;20.60;99.90;;;;;;5054416;28;20365;-83
2022/12/21 11:19:25;;;;;;;3.20;1.02;;;20.60;99.90;;;;;;5072828;28;20238;-83
2022/12/21 11:22:00;;;;;;;1.45;0.63;;;20.60;99.90;;;;;;5073546;28;20909;-80
2022/12/21 11:24:34;;;;;;;2.90;0.50;;;20.60;99.90;;;;;;5070263;28;20199;-84
2022/12/21 11:27:17;;;;;;;2.67;0.40;;;20.50;99.90;;;;;;5070649;28;20245;-84
2022/12/21 11:29:50;;;;;;;1.92;0.50;;;20.50;99.90;;;;;;5070091;28;20191;-82
2022/12/21 11:32:23;;;;;;;2.25;0.55;;;20.50;99.90;;;;;;5071796;28;20586;-82
2022/12/21 11:34:58;;;;;;;1.85;0.47;;;20.50;99.90;;;;;;5087050;28;20188;-83
2022/12/21 11:37:32;;;;;;;1.27;0.40;;;20.50;99.90;;;;;;5079031;28;20199;-82
2022/12/21 11:40:17;;;;;;;2.42;1.30;;;20.50;99.90;;;;;;5071062;28;20233;-82
2022/12/21 11:45:53;;;;;;;2.45;0.90;;;20.50;99.90;;;;;;5070118;28;20203;-82
2022/12/21 11:48:30;;;;;;;4.40;0.90;;;20.50;99.90;;;;;;5070486;28;20204;-83
2022/12/21 11:51:11;;;;;;;2.05;0.45;;;20.50;99.90;;;;;;5066847;28;20790;-83
2022/12/21 11:54:03;;;;;;;2.92;0.80;;;20.50;99.90;;;;;;5071543;28;20242;-83
2022/12/21 11:56:38;;;;;;;3.13;0.70;;;20.40;99.90;;;;;;5067997;28;20843;-82
2022/12/21 11:59:31;;;;;;;1.73;0.50;;;20.40;99.90;;;;;;5065258;28;20219;-83
2022/12/21 12:02:23;;;;;;;2.50;0.70;;;20.40;99.90;;;;;;5064994;28;20203;-82
2022/12/21 12:05:07;;;;;;;3.55;0.90;;;20.30;99.90;;;;;;5069719;28;20197;-83
2022/12/21 12:07:54;;;;;;;0.90;0.40;;;20.40;99.90;;;;;;5062882;28;20201;-82
2022/12/21 12:10:53;;;;;;;1.83;0.75;;;20.40;99.90;;;;;;5065525;28;20195;-82
2022/12/21 12:13:36;;;;;;;1.88;0.40;;;20.30;99.90;;;;;;5054757;28;20329;-82
2022/12/21 12:16:16;;;;;;;2.30;0.57;;;20.20;99.90;;;;;;5068687;28;20225;-83
2022/12/21 12:18:59;;;;;;;1.10;0.30;;;20.20;99.90;;;;;;5064769;28;20195;-82
2022/12/21 12:22:00;;;;;;;1.63;0.47;;;20.30;99.90;;;;;;5065055;28;20199;-83
2022/12/21 12:24:56;;;;;;;2.67;0.40;;;20.30;99.90;;;;;;5065267;28;20199;-84
2022/12/21 12:27:45;;;;;;;1.88;0.40;;;20.30;99.90;;;;;;5069864;28;20255;-84
2022/12/21 12:30:20;;;;;;;1.98;0.50;;;20.30;99.90;;;;;;5066522;28;20196;-84
2022/12/21 12:33:05;;;;;;;4.13;0.60;;;20.30;99.90;;;;;;5072125;28;20242;-84
2022/12/21 12:36:08;;;;;;;1.05;0.50;;;20.30;99.90;;;;;;5067830;28;20831;-85
2022/12/21 12:38:55;;;;;;;2.25;0.70;;;20.30;99.90;;;;;;5072290;28;20271;-85
2022/12/21 12:41:41;;;;;;;1.17;0.50;;;20.30;99.90;;;;;;5088182;28;20342;-84
2022/12/21 12:44:33;;;;;;;0.88;0.50;;;20.30;99.90;;;;;;5069152;28;20206;-84
2022/12/21 12:47:14;;;;;;;1.38;0.60;;;20.30;99.90;;;;;;5070922;28;20456;-84
2022/12/21 12:50:00;;;;;;;2.00;0.60;;;20.30;99.90;;;;;;5068367;28;20199;-84
2022/12/21 12:52:46;;;;;;;3.17;0.70;;;20.30;99.90;;;;;;5068724;28;20199;-85
2022/12/21 12:55:34;;;;;;;1.73;0.40;;;20.30;99.90;;;;;;5071824;28;20198;-85
2022/12/21 12:58:13;;;;;;;2.13;0.68;;;20.30;99.90;;;;;;5078937;28;20187;-84
2022/12/21 13:00:54;;;;;;;2.47;0.60;;;20.30;99.90;;;;;;5072354;28;20215;-85
2022/12/21 13:03:36;;;;;;;1.02;0.30;;;20.30;99.90;;;;;;5083115;28;20287;-85
2022/12/21 13:06:19;;;;;;;1.15;0.40;;;20.30;99.90;;;;;;5074209;28;20203;-85
2022/12/21 13:08:58;;;;;;;1.48;0.47;;;20.30;99.90;;;;;;5106909;28;20741;-84
2022/12/21 13:11:39;;;;;;;1.65;0.50;;;20.20;99.90;;;;;;5087047;28;20195;-83
2022/12/21 13:14:23;;;;;;;4.07;0.60;;;20.20;99.90;;;;;;5089373;28;20636;-83
2022/12/21 13:16:59;;;;;;;1.58;0.40;;;20.20;99.90;;;;;;5088545;28;20226;-83
2022/12/21 13:19:32;;;;;;;2.65;0.60;;;20.20;99.90;;;;;;5088861;28;20218;-82
2022/12/21 13:22:07;;;;;;;1.75;0.55;;;20.20;99.90;;;;;;5089639;28;20199;-81
2022/12/21 13:24:44;;;;;;;0.82;0.50;;;20.10;99.90;;;;;;5087706;28;20199;-84
2022/12/21 13:27:22;;;;;;;2.28;0.70;;;20.10;99.90;;;;;;5087942;28;20195;-83
2022/12/21 13:30:01;;;;;;;2.30;0.60;;;20.10;99.90;;;;;;5084885;28;20446;-84
2022/12/21 13:32:37;;;;;;;2.13;0.60;;;20.00;99.90;;;;;;5077991;28;20230;-85
2022/12/21 13:35:18;;;;;;;1.38;0.50;;;20.10;99.90;;;;;;5087247;28;20203;-84
2022/12/21 13:37:58;;;;;;;1.50;0.65;;;20.10;99.90;;;;;;5107535;28;20224;-85
2022/12/21 13:40:36;;;;;;;2.58;0.40;;;20.10;99.90;;;;;;5096179;28;20314;-84
2022/12/21 13:43:16;;;;;;;1.50;0.60;;;20.00;99.90;;;;;;5090475;28;20204;-84
2022/12/21 13:45:53;;;;;;;2.47;0.60;;;20.00;99.90;;;;;;5096934;28;20191;-83
2022/12/21 13:48:29;;;;;;;1.05;0.50;;;20.00;99.90;;;;;;5093868;28;20206;-84